Time;durP1;ratioP1;P1;durP2;ratioP2;P2;SDS_P1;SDS_P2;PMS_P1;PMS_P2;Temp;Humidity;BMP_temperature;BMP_pressure;BME280_temperature;BME280_humidity;BME280_pressure;Samples;Min_cycle;Max_cycle;Signal;HPM_P1;HPM_P2
2022/09/30 00:01:46;;;;;;;8.23;5.32;;;;;;;;;;5012878;28;20038;-81
2022/09/30 00:04:16;;;;;;;8.25;5.20;;;;;;;;;;4995336;28;20457;-82
2022/09/30 00:06:42;;;;;;;7.15;5.85;;;;;;;;;;5013000;28;20041;-81
2022/09/30 00:09:10;;;;;;;8.40;6.38;;;;;;;;;;5012985;28;20037;-81
2022/09/30 00:11:38;;;;;;;6.38;5.78;;;;;;;;;;5012777;28;20050;-81
2022/09/30 00:14:04;;;;;;;8.45;6.60;;;;;;;;;;5012830;28;20033;-82
2022/09/30 00:16:32;;;;;;;6.25;5.45;;;;;;;;;;5012712;28;20038;-82
2022/09/30 00:18:59;;;;;;;5.80;5.20;;;;;;;;;;4989647;28;20457;-81
2022/09/30 00:21:26;;;;;;;7.10;6.03;;;;;;;;;;5012870;28;20038;-82
2022/09/30 00:23:53;;;;;;;7.18;5.53;;;;;;;;;;5012573;28;20143;-82
2022/09/30 00:26:20;;;;;;;6.20;5.60;;;;;;;;;;5012618;28;20521;-81
2022/09/30 00:28:50;;;;;;;8.15;5.72;;;;;;;;;;5012579;28;20041;-82
2022/09/30 00:31:18;;;;;;;6.80;6.00;;;;;;;;;;5012536;28;20120;-81
2022/09/30 00:34:05;;;;;;;5.95;5.35;;;;;;;;;;5010184;28;20033;-81
2022/09/30 00:36:30;;;;;;;7.28;5.78;;;;;;;;;;5010654;28;20404;-81
2022/09/30 00:38:56;;;;;;;10.20;5.93;;;;;;;;;;5012480;28;20038;-81
2022/09/30 00:41:23;;;;;;;6.68;5.95;;;;;;;;;;5012495;28;20032;-82
2022/09/30 00:43:53;;;;;;;6.95;5.85;;;;;;;;;;5012328;28;20029;-82
2022/09/30 00:46:38;;;;;;;6.10;5.50;;;;;;;;;;5012096;28;20127;-82
2022/09/30 00:49:22;;;;;;;6.50;5.90;;;;;;;;;;5009926;28;20034;-82
2022/09/30 00:51:52;;;;;;;6.25;5.65;;;;;;;;;;5010496;28;20092;-82
2022/09/30 00:54:23;;;;;;;7.05;5.28;;;;;;;;;;5012179;28;20273;-82
2022/09/30 00:56:52;;;;;;;6.70;5.63;;;;;;;;;;5012287;28;20164;-82
2022/09/30 00:59:24;;;;;;;6.32;5.68;;;;;;;;;;5012172;28;20105;-82
2022/09/30 01:01:50;;;;;;;10.70;6.68;;;;;;;;;;5012018;28;20380;-82
2022/09/30 01:04:24;;;;;;;7.57;5.43;;;;;;;;;;4994684;28;20048;-82
2022/09/30 01:06:50;;;;;;;6.30;5.53;;;;;;;;;;5010381;28;20042;-81
2022/09/30 01:09:17;;;;;;;7.47;6.18;;;;;;;;;;5012158;28;20057;-81
2022/09/30 01:11:43;;;;;;;8.45;6.70;;;;;;;;;;4986138;28;20050;-82
2022/09/30 01:14:28;;;;;;;6.40;5.80;;;;;;;;;;4994396;28;20041;-82
2022/09/30 01:16:59;;;;;;;7.90;5.90;;;;;;;;;;5010877;28;20030;-82
2022/09/30 01:19:43;;;;;;;6.78;6.07;;;;;;;;;;5008437;28;20037;-82
2022/09/30 01:22:09;;;;;;;;;;;;;;;;;;5010692;28;20034;-82
2022/09/30 01:24:54;;;;;;;7.25;5.80;;;;;;;;;;5009191;28;20249;-83
2022/09/30 01:27:20;;;;;;;;;;;;;;;;;;5011948;28;20030;-82
2022/09/30 01:30:05;;;;;;;9.45;6.45;;;;;;;;;;5012078;28;19952;-82
2022/09/30 01:32:40;;;;;;;7.97;6.18;;;;;;;;;;5010264;28;20103;-82
2022/09/30 01:35:12;;;;;;;8.45;6.18;;;;;;;;;;5009572;28;20038;-81
2022/09/30 01:37:38;;;;;;;7.93;6.78;;;;;;;;;;5011640;28;20092;-82
2022/09/30 01:40:13;;;;;;;6.40;5.78;;;;;;;;;;5011808;28;20033;-82
2022/09/30 01:43:09;;;;;;;7.80;5.95;;;;;;;;;;4988695;28;20033;-82
2022/09/30 01:45:54;;;;;;;6.80;5.63;;;;;;;;;;4988895;28;20033;-82
2022/09/30 01:48:30;;;;;;;8.35;6.28;;;;;;;;;;5011302;28;20034;-82
2022/09/30 01:50:59;;;;;;;8.13;6.47;;;;;;;;;;5011329;28;20026;-82
2022/09/30 01:53:28;;;;;;;6.55;5.85;;;;;;;;;;5009530;28;20041;-82
2022/09/30 01:56:13;;;;;;;7.13;5.85;;;;;;;;;;5011377;28;20051;-81
2022/09/30 01:58:39;;;;;;;;;;;;;;;;;;5012130;28;20026;-82
2022/09/30 02:01:08;;;;;;;7.20;6.50;;;;;;;;;;5015412;28;19968;-82
2022/09/30 02:03:36;;;;;;;7.95;6.47;;;;;;;;;;5015395;28;20040;-82
2022/09/30 02:06:08;;;;;;;7.50;6.00;;;;;;;;;;5015178;28;20489;-82
2022/09/30 02:08:54;;;;;;;9.68;6.72;;;;;;;;;;4992084;28;20423;-82
2022/09/30 02:11:25;;;;;;;7.68;6.60;;;;;;;;;;5014280;28;20496;-82
2022/09/30 02:13:55;;;;;;;12.10;5.97;;;;;;;;;;5015207;28;20030;-82
2022/09/30 02:16:27;;;;;;;6.00;4.78;;;;;;;;;;5014998;28;20048;-82
2022/09/30 02:18:57;;;;;;;6.57;4.95;;;;;;;;;;5015071;28;20065;-82
2022/09/30 02:21:25;;;;;;;7.28;5.63;;;;;;;;;;5015003;28;20034;-82
2022/09/30 02:23:54;;;;;;;9.40;5.80;;;;;;;;;;5014902;28;20052;-82
2022/09/30 02:26:23;;;;;;;6.78;5.55;;;;;;;;;;5014971;28;20072;-82
2022/09/30 02:29:02;;;;;;;6.45;5.65;;;;;;;;;;5014986;28;20026;-81
2022/09/30 02:31:29;;;;;;;6.90;5.78;;;;;;;;;;5012852;28;20061;-82
2022/09/30 02:34:01;;;;;;;10.25;6.35;;;;;;;;;;5014754;28;20025;-82
2022/09/30 02:36:35;;;;;;;7.30;5.53;;;;;;;;;;5015100;28;20042;-81
2022/09/30 02:39:01;;;;;;;;;;;;;;;;;;4998221;28;20038;-82
2022/09/30 02:41:29;;;;;;;6.30;5.70;;;;;;;;;;5015410;28;19963;-81
2022/09/30 02:43:56;;;;;;;7.22;5.60;;;;;;;;;;5015245;28;20064;-81
2022/09/30 02:46:22;;;;;;;8.85;7.38;;;;;;;;;;5015218;28;20034;-82
2022/09/30 02:48:48;;;;;;;11.88;9.15;;;;;;;;;;5015179;28;20037;-81
2022/09/30 02:51:17;;;;;;;9.80;7.88;;;;;;;;;;5015005;28;20049;-82
2022/09/30 02:53:48;;;;;;;10.23;7.90;;;;;;;;;;5014920;28;20038;-82
2022/09/30 02:56:37;;;;;;;30.00;25.70;;;;;;;;;;4997204;28;20042;-82
2022/09/30 02:59:04;;;;;;;20.23;16.83;;;;;;;;;;5014978;28;20033;-82
2022/09/30 03:01:30;;;;;;;11.57;7.53;;;;;;;;;;5014694;28;20066;-81
2022/09/30 03:03:58;;;;;;;8.68;6.00;;;;;;;;;;5014929;28;20128;-81
2022/09/30 03:06:24;;;;;;;9.45;6.60;;;;;;;;;;4997244;28;20042;-81
2022/09/30 03:08:54;;;;;;;7.70;6.15;;;;;;;;;;5014787;28;20030;-82
2022/09/30 03:11:24;;;;;;;8.48;6.40;;;;;;;;;;5014057;28;20374;-82
2022/09/30 03:14:08;;;;;;;10.10;6.95;;;;;;;;;;5014742;28;20564;-82
2022/09/30 03:16:53;;;;;;;10.43;7.03;;;;;;;;;;5014715;28;20456;-81
2022/09/30 03:19:19;;;;;;;10.98;7.30;;;;;;;;;;5014495;28;20476;-82
2022/09/30 03:21:55;;;;;;;10.68;7.20;;;;;;;;;;5014535;28;20034;-82
2022/09/30 03:24:40;;;;;;;8.98;6.85;;;;;;;;;;5014424;28;20038;-82
2022/09/30 03:27:05;;;;;;;;;;;;;;;;;;5014937;28;20038;-81
2022/09/30 03:29:54;;;;;;;8.20;7.10;;;;;;;;;;5014199;28;19905;-82
2022/09/30 03:32:27;;;;;;;9.90;6.45;;;;;;;;;;5014034;28;20042;-81
2022/09/30 03:34:54;;;;;;;12.70;7.28;;;;;;;;;;5014330;28;20034;-82
2022/09/30 03:37:37;;;;;;;11.43;6.93;;;;;;;;;;5014102;28;20043;-82
2022/09/30 03:40:03;;;;;;;15.63;7.93;;;;;;;;;;5013779;28;20026;-82
2022/09/30 03:42:43;;;;;;;11.10;7.85;;;;;;;;;;5010186;28;20250;-82
2022/09/30 03:45:12;;;;;;;7.72;5.95;;;;;;;;;;4994158;28;20050;-81
2022/09/30 03:47:42;;;;;;;7.30;6.25;;;;;;;;;;4994380;28;20062;-81
2022/09/30 03:50:10;;;;;;;8.30;6.30;;;;;;;;;;4994634;28;20039;-82
2022/09/30 03:52:36;;;;;;;8.45;6.18;;;;;;;;;;4993749;28;20078;-82
2022/09/30 03:55:04;;;;;;;10.10;8.65;;;;;;;;;;4994200;28;20038;-82
2022/09/30 03:57:31;;;;;;;21.02;15.48;;;;;;;;;;4976450;28;20043;-82
2022/09/30 03:59:57;;;;;;;67.85;50.78;;;;;;;;;;4994061;28;20038;-82
2022/09/30 04:02:24;;;;;;;16.65;13.65;;;;;;;;;;4994004;28;20041;-82
2022/09/30 04:04:50;;;;;;;11.48;7.03;;;;;;;;;;4976562;28;20043;-82
2022/09/30 04:07:16;;;;;;;7.85;6.40;;;;;;;;;;4993838;28;20437;-82
2022/09/30 04:09:42;;;;;;;9.63;6.47;;;;;;;;;;4991492;28;20117;-82
2022/09/30 04:12:08;;;;;;;9.80;6.50;;;;;;;;;;4999758;28;20141;-82
2022/09/30 04:14:35;;;;;;;11.43;8.27;;;;;;;;;;4995683;28;20109;-82
2022/09/30 04:17:01;;;;;;;8.40;7.07;;;;;;;;;;5013403;28;20484;-82
2022/09/30 04:19:27;;;;;;;9.77;7.07;;;;;;;;;;5013467;28;20138;-85
2022/09/30 04:21:54;;;;;;;10.48;7.35;;;;;;;;;;5012622;28;20393;-83
2022/09/30 04:24:20;;;;;;;21.35;9.10;;;;;;;;;;4995626;28;20056;-82
2022/09/30 04:26:46;;;;;;;13.73;7.97;;;;;;;;;;5013278;28;20038;-84
2022/09/30 04:29:12;;;;;;;22.08;16.40;;;;;;;;;;5013282;28;20037;-83
2022/09/30 04:31:38;;;;;;;9.32;7.30;;;;;;;;;;5013098;28;20056;-82
2022/09/30 04:34:05;;;;;;;8.68;6.40;;;;;;;;;;5013282;28;20442;-82
2022/09/30 04:36:31;;;;;;;12.52;7.38;;;;;;;;;;5013063;28;20113;-83
2022/09/30 04:38:57;;;;;;;21.70;17.27;;;;;;;;;;5013052;28;20046;-83
2022/09/30 04:41:24;;;;;;;12.15;7.18;;;;;;;;;;5020074;28;20021;-81
2022/09/30 04:43:50;;;;;;;11.68;7.63;;;;;;;;;;5032371;28;20113;-80
2022/09/30 04:46:17;;;;;;;7.70;6.50;;;;;;;;;;5032721;28;20041;-80
2022/09/30 04:48:47;;;;;;;8.32;6.22;;;;;;;;;;5032796;28;20037;-83
2022/09/30 04:51:14;;;;;;;11.30;6.93;;;;;;;;;;5032537;28;20049;-82
2022/09/30 04:53:40;;;;;;;30.55;22.90;;;;;;;;;;5032365;28;20041;-79
2022/09/30 04:56:06;;;;;;;22.45;13.93;;;;;;;;;;5014658;28;20087;-80
2022/09/30 04:58:33;;;;;;;11.13;7.80;;;;;;;;;;5032432;28;20037;-81
2022/09/30 05:01:09;;;;;;;9.93;7.05;;;;;;;;;;5032358;28;20069;-82
2022/09/30 05:03:36;;;;;;;187.32;145.52;;;;;;;;;;5032282;28;20477;-79
2022/09/30 05:06:02;;;;;;;23.38;17.83;;;;;;;;;;5032373;28;20488;-81
2022/09/30 05:08:28;;;;;;;9.57;8.43;;;;;;;;;;5032319;28;20140;-80
2022/09/30 05:10:56;;;;;;;10.70;8.38;;;;;;;;;;5032123;28;20046;-81
2022/09/30 05:13:23;;;;;;;9.85;8.18;;;;;;;;;;5026958;28;20100;-79
2022/09/30 05:15:49;;;;;;;10.23;8.45;;;;;;;;;;5009742;28;20048;-80
2022/09/30 05:18:15;;;;;;;12.55;8.48;;;;;;;;;;5010473;28;20034;-82
2022/09/30 05:20:41;;;;;;;13.73;10.05;;;;;;;;;;5012183;28;20061;-79
2022/09/30 05:23:08;;;;;;;15.90;11.40;;;;;;;;;;5012357;28;20030;-80
2022/09/30 05:25:34;;;;;;;15.90;10.75;;;;;;;;;;5010222;28;20044;-79
2022/09/30 05:28:00;;;;;;;23.83;15.20;;;;;;;;;;5011920;28;20038;-79
2022/09/30 05:30:27;;;;;;;21.45;16.08;;;;;;;;;;5011335;28;20049;-80
2022/09/30 05:32:53;;;;;;;18.52;16.55;;;;;;;;;;5011372;28;20038;-82
2022/09/30 05:35:19;;;;;;;22.35;16.50;;;;;;;;;;5014888;28;20120;-79
2022/09/30 05:37:45;;;;;;;16.42;14.00;;;;;;;;;;5015962;28;20034;-82
2022/09/30 05:40:11;;;;;;;28.13;21.98;;;;;;;;;;5015563;28;20075;-81
2022/09/30 05:42:37;;;;;;;23.73;20.45;;;;;;;;;;5014258;28;20038;-82
2022/09/30 05:45:05;;;;;;;19.15;16.02;;;;;;;;;;5015201;28;20065;-81
2022/09/30 05:47:32;;;;;;;14.40;10.00;;;;;;;;;;4992823;28;20042;-80
2022/09/30 05:49:58;;;;;;;15.13;12.23;;;;;;;;;;5014945;28;20500;-88
2022/09/30 05:52:24;;;;;;;14.82;11.25;;;;;;;;;;4997569;28;20078;-87
2022/09/30 05:54:51;;;;;;;11.32;8.20;;;;;;;;;;4996851;28;20033;-84
2022/09/30 05:57:17;;;;;;;26.67;20.05;;;;;;;;;;5018470;28;20116;-90
2022/09/30 05:59:43;;;;;;;83.10;71.93;;;;;;;;;;5033997;28;20123;-78
2022/09/30 06:02:10;;;;;;;37.08;26.63;;;;;;;;;;5016475;28;20049;-81
2022/09/30 06:04:36;;;;;;;22.48;18.90;;;;;;;;;;5010291;28;20057;-79
2022/09/30 06:07:02;;;;;;;21.40;13.30;;;;;;;;;;5010389;28;20042;-80
2022/09/30 06:09:28;;;;;;;20.80;16.30;;;;;;;;;;5012708;28;20044;-78
2022/09/30 06:11:56;;;;;;;15.25;10.68;;;;;;;;;;5011861;28;20045;-80
2022/09/30 06:14:23;;;;;;;15.48;10.82;;;;;;;;;;5010700;28;20440;-79
2022/09/30 06:16:49;;;;;;;11.73;9.50;;;;;;;;;;5013182;28;20354;-79
2022/09/30 06:19:16;;;;;;;11.60;8.38;;;;;;;;;;5011575;28;20046;-79
2022/09/30 06:21:42;;;;;;;13.85;9.50;;;;;;;;;;5011623;28;20069;-80
2022/09/30 06:24:11;;;;;;;195.75;57.53;;;;;;;;;;4975105;28;20093;-80
2022/09/30 06:26:38;;;;;;;290.08;84.60;;;;;;;;;;5012199;28;20037;-81
2022/09/30 06:29:04;;;;;;;378.77;109.70;;;;;;;;;;5013479;28;20041;-81
2022/09/30 06:31:30;;;;;;;229.43;67.75;;;;;;;;;;5010383;28;20062;-81
2022/09/30 06:33:57;;;;;;;67.22;25.85;;;;;;;;;;5011222;28;20042;-85
2022/09/30 06:36:23;;;;;;;18.65;11.50;;;;;;;;;;4994308;28;20178;-85
2022/09/30 06:38:53;;;;;;;15.45;11.43;;;;;;;;;;5011270;28;20071;-83
2022/09/30 06:41:19;;;;;;;26.52;13.85;;;;;;;;;;5011908;28;20053;-82
2022/09/30 06:43:45;;;;;;;15.27;11.20;;;;;;;;;;5008694;28;20037;-84
2022/09/30 06:46:12;;;;;;;17.13;12.77;;;;;;;;;;5008505;28;20042;-83
2022/09/30 06:48:41;;;;;;;15.20;10.48;;;;;;;;;;4993133;28;20785;-84
2022/09/30 06:51:09;;;;;;;13.98;11.23;;;;;;;;;;4996011;28;20511;-86
2022/09/30 06:53:42;;;;;;;12.50;9.90;;;;;;;;;;5011146;28;20045;-84
2022/09/30 06:56:08;;;;;;;11.52;7.95;;;;;;;;;;5010483;28;20108;-84
2022/09/30 06:58:34;;;;;;;30.63;14.18;;;;;;;;;;5012283;28;20037;-83
2022/09/30 07:01:02;;;;;;;16.38;10.77;;;;;;;;;;5013571;28;20113;-83
2022/09/30 07:03:30;;;;;;;17.75;12.93;;;;;;;;;;5010744;28;20072;-83
2022/09/30 07:05:57;;;;;;;21.70;15.27;;;;;;;;;;5011070;28;20069;-82
2022/09/30 07:08:24;;;;;;;25.23;14.68;;;;;;;;;;5009019;28;20037;-82
2022/09/30 07:10:51;;;;;;;15.73;11.45;;;;;;;;;;5010693;28;20092;-80
2022/09/30 07:13:17;;;;;;;29.88;14.25;;;;;;;;;;5011018;28;20045;-85
2022/09/30 07:15:44;;;;;;;22.45;12.38;;;;;;;;;;4994337;28;20085;-81
2022/09/30 07:18:10;;;;;;;15.98;11.30;;;;;;;;;;5012561;28;20128;-81
2022/09/30 07:20:36;;;;;;;16.33;11.10;;;;;;;;;;5013367;28;20034;-81
2022/09/30 07:23:02;;;;;;;17.20;11.93;;;;;;;;;;5011516;28;20077;-80
2022/09/30 07:25:28;;;;;;;16.75;11.65;;;;;;;;;;5011063;28;20049;-83
2022/09/30 07:27:55;;;;;;;17.77;12.48;;;;;;;;;;5011511;28;20048;-83
2022/09/30 07:30:21;;;;;;;12.85;11.52;;;;;;;;;;5010423;28;20078;-83
2022/09/30 07:32:47;;;;;;;17.02;12.43;;;;;;;;;;4992996;28;20057;-81
2022/09/30 07:35:13;;;;;;;13.23;10.20;;;;;;;;;;5011401;28;20050;-82
2022/09/30 07:37:40;;;;;;;18.17;11.35;;;;;;;;;;5010605;28;20440;-84
2022/09/30 07:40:06;;;;;;;20.80;11.25;;;;;;;;;;5011093;28;20543;-82
2022/09/30 07:42:44;;;;;;;20.20;11.85;;;;;;;;;;4993375;28;20048;-85
2022/09/30 07:45:24;;;;;;;34.17;15.93;;;;;;;;;;4992559;28;20061;-83
2022/09/30 07:47:53;;;;;;;26.37;12.57;;;;;;;;;;4991969;28;20035;-80
2022/09/30 07:50:19;;;;;;;18.88;10.85;;;;;;;;;;5012699;28;20057;-83
2022/09/30 07:52:45;;;;;;;21.25;12.32;;;;;;;;;;5012018;28;20124;-80
2022/09/30 07:55:11;;;;;;;14.30;10.60;;;;;;;;;;5012568;28;20540;-80
2022/09/30 07:57:37;;;;;;;19.27;12.10;;;;;;;;;;5011334;28;20480;-82
2022/09/30 08:00:03;;;;;;;16.70;11.15;;;;;;;;;;5011923;28;20056;-85
2022/09/30 08:02:29;;;;;;;13.00;9.35;;;;;;;;;;5011326;28;20042;-82
2022/09/30 08:04:56;;;;;;;7.40;6.60;;;;;;;;;;5011667;28;20061;-82
2022/09/30 08:07:22;;;;;;;8.40;7.47;;;;;;;;;;5012381;28;20038;-81
2022/09/30 08:09:48;;;;;;;9.48;8.27;;;;;;;;;;5012280;28;20406;-81
2022/09/30 08:12:14;;;;;;;8.75;7.88;;;;;;;;;;5011286;28;20077;-80
2022/09/30 08:14:40;;;;;;;15.52;8.63;;;;;;;;;;5011653;28;20038;-80
2022/09/30 08:17:13;;;;;;;12.55;8.50;;;;;;;;;;5103231;27;1400299;-82
2022/09/30 08:19:42;;;;;;;31.35;13.50;;;;;;;;;;5128127;28;20038;-77
2022/09/30 08:22:09;;;;;;;16.67;9.57;;;;;;;;;;5129085;27;20081;-81
2022/09/30 08:24:35;;;;;;;13.65;9.20;;;;;;;;;;5129189;27;20371;-77
2022/09/30 08:27:01;;;;;;;17.98;9.05;;;;;;;;;;5128896;28;20110;-77
2022/09/30 08:29:27;;;;;;;11.10;7.60;;;;;;;;;;5122035;28;20023;-79
2022/09/30 08:31:54;;;;;;;7.82;6.43;;;;;;;;;;5139668;27;20113;-79
2022/09/30 08:34:20;;;;;;;9.60;6.80;;;;;;;;;;5136862;27;20034;-77
2022/09/30 08:36:46;;;;;;;27.98;13.75;;;;;;;;;;5109924;27;20436;-77
2022/09/30 08:39:12;;;;;;;31.98;15.35;;;;;;;;;;5108281;28;20069;-78
2022/09/30 08:41:38;;;;;;;24.75;12.00;;;;;;;;;;5108970;28;20024;-76
2022/09/30 08:44:07;;;;;;;25.00;12.70;;;;;;;;;;5124660;28;20428;-78
2022/09/30 08:46:52;;;;;;;39.88;14.77;;;;;;;;;;5123615;28;20038;-80
2022/09/30 08:49:37;;;;;;;64.93;22.52;;;;;;;;;;5123448;28;20092;-78
2022/09/30 08:52:03;;;;;;;;;;;;;;;;;;5126136;28;20027;-80
2022/09/30 08:54:31;;;;;;;26.83;13.95;;;;;;;;;;5127039;28;20426;-72
2022/09/30 08:57:04;;;;;;;20.88;11.43;;;;;;;;;;5127366;28;20063;-80
2022/09/30 08:59:49;;;;;;;11.73;7.10;;;;;;;;;;5127818;27;20088;-79
2022/09/30 09:02:15;;;;;;;12.93;8.60;;;;;;;;;;5121762;27;20051;-78
2022/09/30 09:04:41;;;;;;;9.30;7.35;;;;;;;;;;5125191;27;20369;-77
2022/09/30 09:07:20;;;;;;;11.85;8.68;;;;;;;;;;5119854;28;20032;-78
2022/09/30 09:10:07;;;;;;;10.13;7.25;;;;;;;;;;5124870;28;20032;-77
2022/09/30 09:12:41;;;;;;;8.32;6.85;;;;;;;;;;5115322;28;20027;-78
2022/09/30 09:15:26;;;;;;;9.95;8.95;;;;;;;;;;5140359;27;20035;-79
2022/09/30 09:18:10;;;;;;;8.68;7.28;;;;;;;;;;5127076;27;20035;-78
2022/09/30 09:20:40;;;;;;;13.95;6.47;;;;;;;;;;5134166;27;20023;-77
2022/09/30 09:23:11;;;;;;;9.13;6.20;;;;;;;;;;5124538;27;20023;-77
2022/09/30 09:25:38;;;;;;;7.40;6.63;;;;;;;;;;5128054;28;20062;-78
2022/09/30 09:28:09;;;;;;;8.77;6.57;;;;;;;;;;5100948;27;20020;-78
2022/09/30 09:30:42;;;;;;;7.00;6.28;;;;;;;;;;5096140;28;20394;-78
2022/09/30 09:33:17;;;;;;;8.63;7.10;;;;;;;;;;5107783;28;20080;-77
2022/09/30 09:35:46;;;;;;;5.93;5.30;;;;;;;;;;5132512;27;20035;-77
2022/09/30 09:38:28;;;;;;;8.95;5.78;;;;;;;;;;5113288;27;20371;-80
2022/09/30 09:41:01;;;;;;;10.00;6.00;;;;;;;;;;5113966;27;20552;-77
2022/09/30 09:43:36;;;;;;;7.80;5.65;;;;;;;;;;5116287;27;20368;-78
2022/09/30 09:46:12;;;;;;;7.20;5.80;;;;;;;;;;5103521;27;20032;-78
2022/09/30 09:48:38;;;;;;;7.03;5.40;;;;;;;;;;5092640;27;20490;-78
2022/09/30 09:51:24;;;;;;;5.07;4.30;;;;;;;;;;5104445;27;20063;-78
2022/09/30 09:53:52;;;;;;;5.95;4.88;;;;;;;;;;5108020;28;20106;-78
2022/09/30 09:56:22;;;;;;;5.18;4.18;;;;;;;;;;5110388;27;20117;-78
2022/09/30 09:59:05;;;;;;;4.35;3.67;;;;;;;;;;5115369;27;20039;-76
2022/09/30 10:01:32;;;;;;;4.30;3.10;;;;;;;;;;5101885;27;20499;-77
2022/09/30 10:04:09;;;;;;;5.88;3.15;;;;;;;;;;5108953;27;20111;-78
2022/09/30 10:06:43;;;;;;;6.40;4.03;;;;;;;;;;5102388;28;20464;-78
2022/09/30 10:09:21;;;;;;;3.63;2.77;;;;;;;;;;5115975;27;20108;-79
2022/09/30 10:11:47;;;;;;;3.53;2.80;;;;;;;;;;5112972;27;20496;-79
2022/09/30 10:14:17;;;;;;;5.47;3.17;;;;;;;;;;5103646;27;20071;-80
2022/09/30 10:16:44;;;;;;;4.97;2.90;;;;;;;;;;5105458;28;20675;-79
2022/09/30 10:19:24;;;;;;;3.38;2.30;;;;;;;;;;5107449;28;20034;-79
2022/09/30 10:21:50;;;;;;;4.38;3.08;;;;;;;;;;5107725;28;20080;-79
2022/09/30 10:24:27;;;;;;;4.30;2.85;;;;;;;;;;5109022;27;20521;-79
2022/09/30 10:26:53;;;;;;;4.53;2.97;;;;;;;;;;5102091;27;20028;-79
2022/09/30 10:29:33;;;;;;;3.22;2.83;;;;;;;;;;5108209;28;20401;-78
2022/09/30 10:32:00;;;;;;;4.15;2.92;;;;;;;;;;5106533;27;20055;-79
2022/09/30 10:34:28;;;;;;;13.60;12.15;;;;;;;;;;5107353;28;20493;-79
2022/09/30 10:36:56;;;;;;;9.30;8.30;;;;;;;;;;5107913;28;20529;-79
2022/09/30 10:39:26;;;;;;;5.22;3.03;;;;;;;;;;5098336;27;20028;-80
2022/09/30 10:42:07;;;;;;;6.28;3.00;;;;;;;;;;5108794;27;20055;-79
2022/09/30 10:44:36;;;;;;;4.35;2.40;;;;;;;;;;5107312;27;20066;-80
2022/09/30 10:47:04;;;;;;;5.55;3.05;;;;;;;;;;5108976;28;20506;-78
2022/09/30 10:49:48;;;;;;;3.70;2.67;;;;;;;;;;5108936;27;20020;-78
2022/09/30 10:52:23;;;;;;;3.95;2.33;;;;;;;;;;5107428;27;20027;-78
2022/09/30 10:54:58;;;;;;;3.67;1.83;;;;;;;;;;5103180;28;20031;-79
2022/09/30 10:57:26;;;;;;;4.50;2.35;;;;;;;;;;5105332;27;20047;-79
2022/09/30 10:59:55;;;;;;;5.45;2.17;;;;;;;;;;5110505;27;20036;-79
2022/09/30 11:02:34;;;;;;;3.67;1.90;;;;;;;;;;5111027;27;20028;-82
2022/09/30 11:05:23;;;;;;;12.82;6.50;;;;;;;;;;5109765;27;20027;-79
2022/09/30 11:07:54;;;;;;;77.03;26.15;;;;;;;;;;5104683;28;20109;-78
2022/09/30 11:10:20;;;;;;;7.78;4.15;;;;;;;;;;5108540;27;20038;-78
2022/09/30 11:12:52;;;;;;;26.15;11.02;;;;;;;;;;5105362;27;20031;-78
2022/09/30 11:15:21;;;;;;;12.50;6.10;;;;;;;;;;5106227;27;20020;-77
2022/09/30 11:17:52;;;;;;;16.90;7.75;;;;;;;;;;5097310;28;20035;-76
2022/09/30 11:20:21;;;;;;;7.00;3.30;;;;;;;;;;5105048;27;20059;-78
2022/09/30 11:22:50;;;;;;;8.55;4.70;;;;;;;;;;5112449;27;20026;-76
2022/09/30 11:25:19;;;;;;;9.15;6.32;;;;;;;;;;5096496;28;20026;-78
2022/09/30 11:27:51;;;;;;;8.73;4.25;;;;;;;;;;5110535;28;20028;-82
2022/09/30 11:30:20;;;;;;;4.57;2.92;;;;;;;;;;5110779;28;20032;-78
2022/09/30 11:32:56;;;;;;;32.58;15.30;;;;;;;;;;5110909;27;20027;-77
2022/09/30 11:35:25;;;;;;;13.07;7.53;;;;;;;;;;5106014;27;20040;-80
2022/09/30 11:38:10;;;;;;;13.98;7.70;;;;;;;;;;5110011;27;20080;-78
2022/09/30 11:40:38;;;;;;;35.95;15.35;;;;;;;;;;5101268;27;20394;-79
2022/09/30 11:43:22;;;;;;;9.63;5.15;;;;;;;;;;5107768;28;20027;-78
2022/09/30 11:46:07;;;;;;;11.27;6.47;;;;;;;;;;5098210;28;20024;-79
2022/09/30 11:48:52;;;;;;;10.65;5.93;;;;;;;;;;5106962;28;20024;-80
2022/09/30 11:51:18;;;;;;;4.78;3.83;;;;;;;;;;5112322;28;20482;-80
2022/09/30 11:54:07;;;;;;;7.05;3.63;;;;;;;;;;5112422;28;20024;-79
2022/09/30 11:56:36;;;;;;;3.83;2.30;;;;;;;;;;5098109;28;20505;-79
2022/09/30 11:59:05;;;;;;;4.68;3.50;;;;;;;;;;5106501;28;20036;-79
2022/09/30 12:01:35;;;;;;;6.00;2.80;;;;;;;;;;5103258;27;20034;-80
2022/09/30 12:04:20;;;;;;;6.20;2.80;;;;;;;;;;5112101;28;20032;-78
2022/09/30 12:06:52;;;;;;;3.97;2.00;;;;;;;;;;5112440;28;20088;-79
2022/09/30 12:09:22;;;;;;;5.68;3.00;;;;;;;;;;5112082;28;20114;-78
2022/09/30 12:11:50;;;;;;;4.68;2.17;;;;;;;;;;5100331;28;20142;-78
2022/09/30 12:14:20;;;;;;;9.40;3.78;;;;;;;;;;5101018;28;20027;-79
2022/09/30 12:16:47;;;;;;;4.93;2.58;;;;;;;;;;5101285;28;20134;-80
2022/09/30 12:19:16;;;;;;;2.78;1.77;;;;;;;;;;5112934;28;20035;-79
2022/09/30 12:21:55;;;;;;;3.58;2.35;;;;;;;;;;5112133;28;20016;-80
2022/09/30 12:24:22;;;;;;;57.28;36.30;;;;;;;;;;5112485;28;20031;-79
2022/09/30 12:26:48;;;;;;;38.40;29.92;;;;;;;;;;5101323;28;20032;-78
2022/09/30 12:32:21;;;;;;;75.03;30.00;;;;;;;;;;5098933;28;20097;-79
2022/09/30 12:34:47;;;;;;;20.45;8.75;;;;;;;;;;5113023;28;20042;-80
2022/09/30 12:37:32;;;;;;;16.67;7.55;;;;;;;;;;5098868;28;20048;-82
2022/09/30 12:39:58;;;;;;;;;;;;;;;;;;5123546;28;20044;-80
2022/09/30 12:42:32;;;;;;;18.67;7.97;;;;;;;;;;5132947;28;20427;-79
2022/09/30 12:45:16;;;;;;;19.67;8.73;;;;;;;;;;5132196;27;20051;-78
2022/09/30 12:48:01;;;;;;;19.00;8.38;;;;;;;;;;5132673;28;20106;-78
2022/09/30 12:50:29;;;;;;;4.97;2.78;;;;;;;;;;5132848;28;20026;-80
2022/09/30 12:52:56;;;;;;;4.55;2.15;;;;;;;;;;5133035;28;20027;-80
2022/09/30 12:55:42;;;;;;;6.05;4.40;;;;;;;;;;5131505;27;20042;-77
2022/09/30 12:58:19;;;;;;;10.55;7.38;;;;;;;;;;5131309;28;20069;-78
2022/09/30 13:00:59;;;;;;;7.70;5.60;;;;;;;;;;5131139;27;20019;-78
2022/09/30 13:03:25;;;;;;;9.38;5.20;;;;;;;;;;5135573;27;20072;-78
2022/09/30 13:06:05;;;;;;;8.77;3.95;;;;;;;;;;5137021;27;20439;-77
2022/09/30 13:08:36;;;;;;;4.70;2.90;;;;;;;;;;5136285;27;20024;-79
2022/09/30 13:11:05;;;;;;;8.02;5.45;;;;;;;;;;5136125;27;20027;-79
2022/09/30 13:13:33;;;;;;;5.18;4.07;;;;;;;;;;5115355;27;20502;-78
2022/09/30 13:16:04;;;;;;;2.97;1.52;;;;;;;;;;5094855;28;20047;-83
2022/09/30 13:18:30;;;;;;;3.35;2.15;;;;;;;;;;5111615;28;20088;-84
2022/09/30 13:20:56;;;;;;;4.28;2.45;;;;;;;;;;5095373;28;20479;-84
2022/09/30 13:23:41;;;;;;;3.78;1.92;;;;;;;;;;5112239;28;20607;-84
2022/09/30 13:26:26;;;;;;;4.45;1.88;;;;;;;;;;5110348;28;20130;-81
2022/09/30 13:28:54;;;;;;;3.95;1.83;;;;;;;;;;5113858;28;20024;-82
2022/09/30 13:31:21;;;;;;;3.90;1.45;;;;;;;;;;5115274;28;20024;-83
2022/09/30 13:34:05;;;;;;;4.78;2.10;;;;;;;;;;5114409;28;20382;-81
2022/09/30 13:36:31;;;;;;;2.63;1.60;;;;;;;;;;5114475;28;20103;-83
2022/09/30 13:39:15;;;;;;;3.65;2.17;;;;;;;;;;5113133;28;20031;-83
2022/09/30 13:41:43;;;;;;;5.70;2.90;;;;;;;;;;5102896;28;20031;-84
2022/09/30 13:44:14;;;;;;;4.60;1.95;;;;;;;;;;5096380;28;20035;-85
2022/09/30 13:46:46;;;;;;;4.88;2.78;;;;;;;;;;5102989;28;20493;-83
2022/09/30 13:49:18;;;;;;;6.38;1.90;;;;;;;;;;5112698;28;20031;-82
2022/09/30 13:51:45;;;;;;;14.45;3.78;;;;;;;;;;5114043;28;20032;-81
2022/09/30 13:54:15;;;;;;;3.58;1.77;;;;;;;;;;5115241;28;20024;-85
2022/09/30 13:56:42;;;;;;;2.63;1.77;;;;;;;;;;5114879;28;20114;-84
2022/09/30 13:59:17;;;;;;;3.53;2.13;;;;;;;;;;5114830;28;20020;-83
2022/09/30 14:01:52;;;;;;;4.65;2.83;;;;;;;;;;5103259;28;20024;-83
2022/09/30 14:04:20;;;;;;;3.05;1.85;;;;;;;;;;5110621;28;20474;-83
2022/09/30 14:07:05;;;;;;;5.28;2.13;;;;;;;;;;5113920;28;20550;-82
2022/09/30 14:09:37;;;;;;;2.83;2.15;;;;;;;;;;5113102;28;20094;-83
2022/09/30 14:12:15;;;;;;;5.45;3.95;;;;;;;;;;5109902;28;20039;-83
2022/09/30 14:14:48;;;;;;;3.47;2.47;;;;;;;;;;5108789;28;20027;-82
2022/09/30 14:17:20;;;;;;;3.60;2.13;;;;;;;;;;5113730;28;20457;-82
2022/09/30 14:19:46;;;;;;;5.10;3.40;;;;;;;;;;5113205;28;20032;-83
2022/09/30 14:22:13;;;;;;;2.90;1.80;;;;;;;;;;5112648;28;20558;-83
2022/09/30 14:24:45;;;;;;;2.53;1.85;;;;;;;;;;5111875;28;20076;-83
2022/09/30 14:27:11;;;;;;;4.22;2.67;;;;;;;;;;5112952;28;20027;-82
2022/09/30 14:29:43;;;;;;;2.45;1.88;;;;;;;;;;5110698;28;20026;-84
2022/09/30 14:32:28;;;;;;;4.45;2.72;;;;;;;;;;5101274;28;20040;-83
2022/09/30 14:34:54;;;;;;;7.10;2.78;;;;;;;;;;5098577;28;20039;-82
2022/09/30 14:37:39;;;;;;;2.80;1.90;;;;;;;;;;5100646;28;20043;-82
2022/09/30 14:40:09;;;;;;;3.83;2.40;;;;;;;;;;5106416;28;20035;-80
2022/09/30 14:42:40;;;;;;;9.45;2.50;;;;;;;;;;5098327;28;20111;-84
2022/09/30 14:45:07;;;;;;;3.50;1.80;;;;;;;;;;5103217;28;20503;-81
2022/09/30 14:47:36;;;;;;;2.58;1.77;;;;;;;;;;5099289;28;20032;-83
2022/09/30 14:50:03;;;;;;;2.83;1.55;;;;;;;;;;5107521;28;20024;-79
2022/09/30 14:52:36;;;;;;;3.35;1.50;;;;;;;;;;5100063;28;20024;-83
2022/09/30 14:55:03;;;;;;;3.72;1.85;;;;;;;;;;5093391;28;20028;-82
2022/09/30 14:57:33;;;;;;;5.53;2.22;;;;;;;;;;5093517;28;20024;-82
2022/09/30 15:00:17;;;;;;;4.40;2.45;;;;;;;;;;5096060;28;20047;-80